Andrea — WDF2417 — position and weather

sailwx.info

Track history (hours):
 
Tides and Currents Weather Stations Pressure Air Temp Water Temp Dewpoint Dewpoint Depression Visibility Wind Speed Wind Dir Waves Ship Positions

Andrea

Owner: Enterprise Marine Services, LLC, San Antonio, TX. More information available from US FCC via Universal Licensing System and Coast Guard Vessel Documentation Center.

Last reported at 2018-Feb-23 08:17 UTC. Time now 2018-Feb-23 12:57 UTC.
Position N 40°48' W 073°54'.

; draft 4 m.

Type: Towing. MMSI: 367003310.

Date/timePositionNaut miles runAvg speedWind from/ knotsBaromVisibWave heightAir tempDewpointWater temp
2018-Feb-23 08:17N 40°48' W 073°54'1 4.8
2018-Feb-23 08:00N 40°47' W 073°55'3 6.1
2018-Feb-23 07:30N 40°45' W 073°58'3 6.7
2018-Feb-23 07:00N 40°42' W 074°00'2 4.0
2018-Feb-23 06:30N 40°41' W 074°03'0 0.1
2018-Feb-23 06:00N 40°41' W 074°03'0 0.0
2018-Feb-23 05:30N 40°41' W 074°03'0 0.1
2018-Feb-23 05:00N 40°41' W 074°03'0 0.1
2018-Feb-23 04:30N 40°41' W 074°03'0 0.0
2018-Feb-23 04:00N 40°41' W 074°03'1 1.1
2018-Feb-23 03:30N 40°40' W 074°03'3 6.3
2018-Feb-23 03:00N 40°39' W 074°07'3 6.3
2018-Feb-23 02:30N 40°39' W 074°11'1 1.5
2018-Feb-23 02:00N 40°38' W 074°12'0 0.3
2018-Feb-23 01:30N 40°38' W 074°12'0 0.0
2018-Feb-23 01:00N 40°38' W 074°12'0 0.0
2018-Feb-23 00:30N 40°38' W 074°12'0 0.0
2018-Feb-23 00:00N 40°38' W 074°12'0 0.0
2018-Feb-22 23:30N 40°38' W 074°12'0 0.0
2018-Feb-22 23:00N 40°38' W 074°12'0 0.0
2018-Feb-22 22:30N 40°38' W 074°12'3 6.6
2018-Feb-22 22:00N 40°39' W 074°07'0 0.1
2018-Feb-22 21:29N 40°39' W 074°07'0 0.0
2018-Feb-22 21:00N 40°39' W 074°07'0 0.0
2018-Feb-22 20:30N 40°39' W 074°07'0 0.0
2018-Feb-22 19:59N 40°39' W 074°07'0 0.0
2018-Feb-22 19:29N 40°39' W 074°07'3 6.7
2018-Feb-22 19:00N 40°39' W 074°11'0 0.3
2018-Feb-22 18:30N 40°38' W 074°12'1 1.1
2018-Feb-22 17:43N 40°38' W 074°12'0 0.0
2018-Feb-22 17:16N 40°38' W 074°12'0 0.0
2018-Feb-22 17:00N 40°38' W 074°12'0 0.0
2018-Feb-22 16:30N 40°38' W 074°12'0 0.0
2018-Feb-22 15:57N 40°38' W 074°12'0 0.0
2018-Feb-22 15:27N 40°38' W 074°12'1 1.4
2018-Feb-22 15:00N 40°37' W 074°12'1 1.7
2018-Feb-22 14:23N 40°36' W 074°12'0 0.1
2018-Feb-22 13:51N 40°36' W 074°12'2 5.4
2018-Feb-22 13:29N 40°38' W 074°12'4 7.3
2018-Feb-22 13:00N 40°39' W 074°07'0 0.6
2018-Feb-22 12:29N 40°39' W 074°07'0 0.1
2018-Feb-22 11:59N 40°39' W 074°07'1 2.3
2018-Feb-22 11:29N 40°39' W 074°05'2 4.6
2018-Feb-22 11:00N 40°40' W 074°03'1 1.3
2018-Feb-22 10:30N 40°41' W 074°03'0 0.0
2018-Feb-22 10:00N 40°41' W 074°03'0 0.0
2018-Feb-22 09:30N 40°41' W 074°03'0 0.0
2018-Feb-22 09:00N 40°41' W 074°03'0 0.0
2018-Feb-22 08:30N 40°41' W 074°03'0 0.0
2018-Feb-22 08:00N 40°41' W 074°03'0 0.0
2018-Feb-22 07:30N 40°41' W 074°03'0 0.0
2018-Feb-22 06:59N 40°41' W 074°03'0 0.0
2018-Feb-22 06:30N 40°41' W 074°03'0 0.1
2018-Feb-22 06:00N 40°41' W 074°03'0 0.0
2018-Feb-22 05:30N 40°41' W 074°03'0 0.1
2018-Feb-22 05:00N 40°41' W 074°03'2 4.6
2018-Feb-22 04:30N 40°39' W 074°05'2 4.5
2018-Feb-22 04:00N 40°41' W 074°03'0 0.0
2018-Feb-22 03:30N 40°41' W 074°03'0 0.1
2018-Feb-22 03:00N 40°41' W 074°03'1 2.5
2018-Feb-22 02:30N 40°40' W 074°04'3 6.7
2018-Feb-22 02:00N 40°39' W 074°08'3 5.6
2018-Feb-22 01:28N 40°38' W 074°12'1 1.4
2018-Feb-22 00:56N 40°38' W 074°12'0 0.1
2018-Feb-22 00:30N 40°38' W 074°12'0 0.0
2018-Feb-22 00:00N 40°38' W 074°12'0 0.0
2018-Feb-21 23:30N 40°38' W 074°12'0 0.0
2018-Feb-21 23:00N 40°38' W 074°12'0 0.0
2018-Feb-21 22:30N 40°38' W 074°12'0 0.0
2018-Feb-21 22:00N 40°38' W 074°12'0 0.0
2018-Feb-21 21:30N 40°38' W 074°12'0 0.0
2018-Feb-21 21:00N 40°38' W 074°12'0 0.0
2018-Feb-21 20:29N 40°38' W 074°12'0 0.0
2018-Feb-21 20:00N 40°38' W 074°12'0 0.0
2018-Feb-21 19:30N 40°38' W 074°12'0 0.0
2018-Feb-21 18:59N 40°38' W 074°12'0 0.0
2018-Feb-21 18:30N 40°38' W 074°12'0 0.0
2018-Feb-21 18:00N 40°38' W 074°12'0 0.0
2018-Feb-21 17:30N 40°38' W 074°12'0 0.0
2018-Feb-21 17:00N 40°38' W 074°12'0 0.0
2018-Feb-21 16:30N 40°38' W 074°12'0 0.0
2018-Feb-21 16:00N 40°38' W 074°12'0 0.0
2018-Feb-21 15:30N 40°38' W 074°12'0 0.0
2018-Feb-21 15:00N 40°38' W 074°12'0 0.0
2018-Feb-21 14:30N 40°38' W 074°12'0 0.0
2018-Feb-21 14:00N 40°38' W 074°12'0 0.0
2018-Feb-21 13:29N 40°38' W 074°12'0 0.0
2018-Feb-21 12:59N 40°38' W 074°12'0 0.0
2018-Feb-21 12:30N 40°38' W 074°12'1 2.8
2018-Feb-21 12:00N 40°39' W 074°11'3 6.6
2018-Feb-21 11:30N 40°39' W 074°07'1 2.8
2018-Feb-21 11:00N 40°39' W 074°05'0 0.0
2018-Feb-21 10:30N 40°39' W 074°05'0 0.1
2018-Feb-21 10:00N 40°39' W 074°05'0 0.0
2018-Feb-21 09:30N 40°39' W 074°05'0 0.0
2018-Feb-21 09:00N 40°39' W 074°05'0 0.0
2018-Feb-21 08:30N 40°39' W 074°05'0 0.0
2018-Feb-21 08:00N 40°39' W 074°05'0 0.0
2018-Feb-21 07:30N 40°39' W 074°05'0 0.0
2018-Feb-21 07:00N 40°39' W 074°05'0 0.0
2018-Feb-21 06:30N 40°39' W 074°05'0 0.0
2018-Feb-21 05:59N 40°39' W 074°05'0 0.0
2018-Feb-21 05:30N 40°39' W 074°05'0 0.0
2018-Feb-21 05:00N 40°39' W 074°05'0 0.0
2018-Feb-21 04:30N 40°39' W 074°05'0 0.0
2018-Feb-21 04:00N 40°39' W 074°05'0 0.0
2018-Feb-21 03:30N 40°39' W 074°05'0 0.0
2018-Feb-21 03:00N 40°39' W 074°05'0 0.0
2018-Feb-21 02:30N 40°39' W 074°05'0 0.0
2018-Feb-21 01:58N 40°39' W 074°05'0 0.0
2018-Feb-21 01:30N 40°39' W 074°05'0 0.0
2018-Feb-21 01:00N 40°39' W 074°05'0 0.0
2018-Feb-21 00:30N 40°39' W 074°05'0 0.0
2018-Feb-20 23:59N 40°39' W 074°05'0 0.0
2018-Feb-20 23:30N 40°39' W 074°05'0 0.0
2018-Feb-20 22:59N 40°39' W 074°05'0 0.0
2018-Feb-20 22:30N 40°39' W 074°05'0 0.0
2018-Feb-20 22:00N 40°39' W 074°05'0 0.6
2018-Feb-20 21:31N 40°39' W 074°05'0 0.6
2018-Feb-20 21:00N 40°39' W 074°05'0 0.0
2018-Feb-20 20:30N 40°39' W 074°05'0 0.0
2018-Feb-20 20:00N 40°39' W 074°05'0 0.0
2018-Feb-20 19:29N 40°39' W 074°05'0 0.0
2018-Feb-20 19:00N 40°39' W 074°05'0 0.0
2018-Feb-20 18:30N 40°39' W 074°05'0 0.0
2018-Feb-20 18:00N 40°39' W 074°05'0 0.0
2018-Feb-20 17:29N 40°39' W 074°05'0 0.0
2018-Feb-20 17:00N 40°39' W 074°05'0 0.0
2018-Feb-20 16:30N 40°39' W 074°05'0 0.0
2018-Feb-20 16:00N 40°39' W 074°05'0 0.0
2018-Feb-20 15:30N 40°39' W 074°05'0 0.0
2018-Feb-20 15:00N 40°39' W 074°05'0 0.0
2018-Feb-20 14:30N 40°39' W 074°05'0 0.0
2018-Feb-20 14:00N 40°39' W 074°05'0 0.0
2018-Feb-20 13:30N 40°39' W 074°05'0 0.0
2018-Feb-20 13:00N 40°39' W 074°05'0 0.0
2018-Feb-20 12:30N 40°39' W 074°05'0 0.0
2018-Feb-20 12:00N 40°39' W 074°05'0 0.0
2018-Feb-20 11:30N 40°39' W 074°05'0 0.0
2018-Feb-20 11:00N 40°39' W 074°05'0 0.0
2018-Feb-20 10:30N 40°39' W 074°05'0 0.4
2018-Feb-20 10:00N 40°39' W 074°05'4 7.6
2018-Feb-20 09:30N 40°39' W 074°10'3 5.4
2018-Feb-20 08:57N 40°36' W 074°12'0 0.0
2018-Feb-20 08:30N 40°36' W 074°12'0 0.0
2018-Feb-20 07:59N 40°36' W 074°12'0 0.0
2018-Feb-20 07:29N 40°36' W 074°12'0 0.0
2018-Feb-20 07:00N 40°36' W 074°12'0 0.0
2018-Feb-20 06:30N 40°36' W 074°12'0 0.0
2018-Feb-20 06:00N 40°36' W 074°12'0 0.0
2018-Feb-20 05:29N 40°36' W 074°12'0 0.0
2018-Feb-20 05:00N 40°36' W 074°12'0 0.0
2018-Feb-20 04:29N 40°36' W 074°12'0 0.0
2018-Feb-20 03:57N 40°36' W 074°12'0 0.0
2018-Feb-20 03:30N 40°36' W 074°12'0 0.0
2018-Feb-20 02:59N 40°36' W 074°12'0 0.0
2018-Feb-20 02:27N 40°36' W 074°12'0 0.0
2018-Feb-20 01:59N 40°36' W 074°12'0 0.0
2018-Feb-20 01:24N 40°36' W 074°12'0 0.0
2018-Feb-20 01:00N 40°36' W 074°12'0 0.0
2018-Feb-19 23:31N 40°36' W 074°12'0 0.0
2018-Feb-19 23:22N 40°36' W 074°12'0 0.0
2018-Feb-19 22:55N 40°36' W 074°12'0 0.0
2018-Feb-19 22:25N 40°36' W 074°12'0 0.0
2018-Feb-19 21:58N 40°36' W 074°12'0 0.0
2018-Feb-19 21:30N 40°36' W 074°12'0 0.0
2018-Feb-19 21:00N 40°36' W 074°12'0 0.0
2018-Feb-19 20:30N 40°36' W 074°12'1 1.1
2018-Feb-19 20:00N 40°36' W 074°12'2 2.6
2018-Feb-19 19:25N 40°34' W 074°13'2 0.9
2018-Feb-19 16:43N 40°37' W 074°12'1 4.1
2018-Feb-19 16:28N 40°38' W 074°12'3 6.7
2018-Feb-19 16:00N 40°39' W 074°08'4 8.0
2018-Feb-19 15:30N 40°39' W 074°03'2 4.8
2018-Feb-19 15:00N 40°40' W 074°00'0 0.0
2018-Feb-19 14:30N 40°40' W 074°00'0 0.0
2018-Feb-19 13:59N 40°40' W 074°00'0 0.0
2018-Feb-19 13:30N 40°40' W 074°00'0 0.0
2018-Feb-19 13:00N 40°40' W 074°00'0 0.0
2018-Feb-19 12:30N 40°40' W 074°00'0 0.0
2018-Feb-19 12:00N 40°40' W 074°00'0 0.0
2018-Feb-19 11:30N 40°40' W 074°00'0 0.0
2018-Feb-19 11:00N 40°40' W 074°00'0 0.0
2018-Feb-19 10:30N 40°40' W 074°00'0 0.0
2018-Feb-19 10:00N 40°40' W 074°00'0 0.0
2018-Feb-19 09:30N 40°40' W 074°00'0 0.0
2018-Feb-19 09:00N 40°40' W 074°00'0 0.0
2018-Feb-19 08:30N 40°40' W 074°00'0 0.0
2018-Feb-19 08:00N 40°40' W 074°00'0 0.0
2018-Feb-19 07:30N 40°40' W 074°00'0 0.0
2018-Feb-19 07:00N 40°40' W 074°00'0 0.0
2018-Feb-19 06:30N 40°40' W 074°00'0 0.0
2018-Feb-19 06:00N 40°40' W 074°00'0 0.0
2018-Feb-19 05:30N 40°40' W 074°00'0 0.0
2018-Feb-19 05:00N 40°40' W 074°00'0 0.0
2018-Feb-19 04:30N 40°40' W 074°00'0 0.0
2018-Feb-19 04:00N 40°40' W 074°00'0 0.0
2018-Feb-19 03:30N 40°40' W 074°00'0 0.0
2018-Feb-19 03:00N 40°40' W 074°00'0 0.0
2018-Feb-19 02:30N 40°40' W 074°00'0 0.0
2018-Feb-19 01:59N 40°40' W 074°00'0 0.0
2018-Feb-19 01:28N 40°40' W 074°00'0 0.0
2018-Feb-19 01:00N 40°40' W 074°00'0 0.0
2018-Feb-19 00:30N 40°40' W 074°00'0 0.0
2018-Feb-18 23:56N 40°40' W 074°00'0 0.1
2018-Feb-18 23:30N 40°40' W 074°00'0 0.0
2018-Feb-18 23:00N 40°40' W 074°00'0 0.0
2018-Feb-18 22:30N 40°40' W 074°00'0 0.0
2018-Feb-18 22:00N 40°40' W 074°00'0 0.0
2018-Feb-18 21:30N 40°40' W 074°00'0 0.0
2018-Feb-18 21:00N 40°40' W 074°00'0 0.0
2018-Feb-18 20:30N 40°40' W 074°00'0 0.0
2018-Feb-18 19:56N 40°40' W 074°00'0 0.0
2018-Feb-18 19:29N 40°40' W 074°00'0 0.0
2018-Feb-18 19:00N 40°40' W 074°00'0 0.0
2018-Feb-18 18:30N 40°40' W 074°00'0 0.0
2018-Feb-18 18:00N 40°40' W 074°00'0 0.0
2018-Feb-18 17:29N 40°40' W 074°00'0 0.0
2018-Feb-18 16:59N 40°40' W 074°00'0 0.0
2018-Feb-18 16:30N 40°40' W 074°00'0 0.0
2018-Feb-18 16:00N 40°40' W 074°00'0 0.0
2018-Feb-18 15:28N 40°40' W 074°00'0 0.0
2018-Feb-18 14:59N 40°40' W 074°00'0 0.0
2018-Feb-18 14:30N 40°40' W 074°00'0 0.0
2018-Feb-18 13:59N 40°40' W 074°00'0 0.0
2018-Feb-18 13:30N 40°40' W 074°00'0 0.0
2018-Feb-18 13:00N 40°40' W 074°00'0 0.0
2018-Feb-18 12:30N 40°40' W 074°00'1 1.4
2018-Feb-18 12:00N 40°40' W 074°01'2 3.3
2018-Feb-18 11:30N 40°41' W 074°03'0 0.0
2018-Feb-18 11:00N 40°41' W 074°03'0 0.0
2018-Feb-18 10:30N 40°41' W 074°03'0 0.0
2018-Feb-18 09:59N 40°41' W 074°03'0 0.0
2018-Feb-18 09:30N 40°41' W 074°03'0 0.0
2018-Feb-18 09:00N 40°41' W 074°03'1 2.6
2018-Feb-18 08:30N 40°40' W 074°04'4 8.4
2018-Feb-18 08:00N 40°39' W 074°09'2 4.6
2018-Feb-18 07:30N 40°41' W 074°09'0 0.0
2018-Feb-18 07:00N 40°41' W 074°09'0 0.0
2018-Feb-18 06:30N 40°41' W 074°09'0 0.0
2018-Feb-18 06:00N 40°41' W 074°09'0 0.0
2018-Feb-18 05:30N 40°41' W 074°09'0 0.0
2018-Feb-18 05:00N 40°41' W 074°09'0 0.0
2018-Feb-18 04:25N 40°41' W 074°09'0 0.0
2018-Feb-18 04:00N 40°41' W 074°09'0 0.0
2018-Feb-18 03:30N 40°41' W 074°09'0 0.0
2018-Feb-18 03:00N 40°41' W 074°09'0 0.0
2018-Feb-18 02:30N 40°41' W 074°09'0 0.0
2018-Feb-18 02:00N 40°41' W 074°09'0 0.0
2018-Feb-18 01:29N 40°41' W 074°09'0 0.0
2018-Feb-18 00:59N 40°41' W 074°09'0 0.0
2018-Feb-18 00:30N 40°41' W 074°09'0 0.1
2018-Feb-18 00:00N 40°41' W 074°09'0 0.1
2018-Feb-17 23:30N 40°41' W 074°09'0 0.0
2018-Feb-17 23:00N 40°41' W 074°09'0 0.0
2018-Feb-17 22:30N 40°41' W 074°09'0 0.0
2018-Feb-17 22:00N 40°41' W 074°09'0 0.9
2018-Feb-17 21:30N 40°41' W 074°08'2 4.2
2018-Feb-17 20:59N 40°39' W 074°07'0 0.3
2018-Feb-17 20:27N 40°39' W 074°06'0 0.1
2018-Feb-17 20:00N 40°39' W 074°06'4 7.8
2018-Feb-17 19:30N 40°38' W 074°12'0 0.2
2018-Feb-17 19:00N 40°38' W 074°12'3 6.0
2018-Feb-17 18:30N 40°39' W 074°08'4 7.9
2018-Feb-17 18:00N 40°40' W 074°03'1 1.7
2018-Feb-17 17:30N 40°41' W 074°03'0 0.0
2018-Feb-17 17:00N 40°41' W 074°03'0 0.1
2018-Feb-17 16:30N 40°41' W 074°03'0 0.0
2018-Feb-17 16:00N 40°41' W 074°03'0 0.1
2018-Feb-17 15:30N 40°41' W 074°03'0 0.1
2018-Feb-17 15:00N 40°41' W 074°03'0 0.0
2018-Feb-17 14:30N 40°41' W 074°03'0 0.0
2018-Feb-17 14:00N 40°41' W 074°03'0 0.1
2018-Feb-17 13:30N 40°41' W 074°03'0 0.1
2018-Feb-17 13:00N 40°41' W 074°03'0 0.0
2018-Feb-17 12:30N 40°41' W 074°03'0 0.1
2018-Feb-17 12:00N 40°41' W 074°03'0 0.0
2018-Feb-17 11:30N 40°41' W 074°03'0 0.0
2018-Feb-17 11:00N 40°41' W 074°03'1 1.3
2018-Feb-17 10:30N 40°40' W 074°03'1 1.8
2018-Feb-17 10:00N 40°40' W 074°04'0 0.0
2018-Feb-17 09:30N 40°40' W 074°04'0 0.1
2018-Feb-17 09:00N 40°40' W 074°04'2 4.1
2018-Feb-17 08:30N 40°39' W 074°06'1 1.1
2018-Feb-17 08:00N 40°39' W 074°06'1 2.8
2018-Feb-17 07:30N 40°39' W 074°04'3 6.3
2018-Feb-17 07:00N 40°40' W 074°00'0 0.0
2018-Feb-17 06:30N 40°40' W 074°00'0 0.0
2018-Feb-17 06:00N 40°40' W 074°00'0 0.0
2018-Feb-17 05:30N 40°40' W 074°00'0 0.0
2018-Feb-17 05:00N 40°40' W 074°00'0 0.0
2018-Feb-17 04:30N 40°40' W 074°00'0 0.0
2018-Feb-17 04:00N 40°40' W 074°00'2 3.9
2018-Feb-17 03:30N 40°41' W 074°02'3 6.2
2018-Feb-17 03:00N 40°42' W 073°59'4 7.7
2018-Feb-17 02:30N 40°46' W 073°57'3 6.7
2018-Feb-17 02:00N 40°48' W 073°54'3 5.9
2018-Feb-17 01:30N 40°48' W 073°50'3 4.3
2018-Feb-17 00:49N 40°50' W 073°47'2 0.1
2018-Feb-15 08:50N 40°48' W 073°49'3 9.6
2018-Feb-15 08:30N 40°48' W 073°53'4 7.4
2018-Feb-15 08:00N 40°46' W 073°57'4 7.3
2018-Feb-15 07:30N 40°42' W 073°59'3 5.9
2018-Feb-15 07:00N 40°40' W 074°01'1 1.1
2018-Feb-15 06:30N 40°40' W 074°00'0 0.0
2018-Feb-15 06:00N 40°40' W 074°00'0 0.0
2018-Feb-15 05:30N 40°40' W 074°00'0 0.0
2018-Feb-15 05:00N 40°40' W 074°00'0 0.0
2018-Feb-15 04:30N 40°40' W 074°00'0 0.0
2018-Feb-15 04:00N 40°40' W 074°00'0 0.0
2018-Feb-15 03:30N 40°40' W 074°00'0 0.0
2018-Feb-15 03:00N 40°40' W 074°00'0 0.0
2018-Feb-15 02:30N 40°40' W 074°00'0 0.0
2018-Feb-15 02:00N 40°40' W 074°00'0 0.0
2018-Feb-15 01:30N 40°40' W 074°00'0 0.0
2018-Feb-15 01:00N 40°40' W 074°00'0 0.0
2018-Feb-15 00:30N 40°40' W 074°00'0 0.0
2018-Feb-15 00:00N 40°40' W 074°00'0 0.0
2018-Feb-14 23:30N 40°40' W 074°00'0 0.0
2018-Feb-14 23:00N 40°40' W 074°00'0 0.0
2018-Feb-14 22:30N 40°40' W 074°00'0 0.0
2018-Feb-14 22:00N 40°40' W 074°00'0 0.1
2018-Feb-14 21:30N 40°40' W 074°00'0 0.0
2018-Feb-14 21:00N 40°40' W 074°00'0 0.0
2018-Feb-14 20:30N 40°40' W 074°00'0 0.0
2018-Feb-14 20:00N 40°40' W 074°00'0 0.0
2018-Feb-14 19:30N 40°40' W 074°00'0 0.0
2018-Feb-14 19:00N 40°40' W 074°00'0 0.0
2018-Feb-14 18:30N 40°40' W 074°00'0 0.0
2018-Feb-14 18:00N 40°40' W 074°00'1 1.7
2018-Feb-14 17:30N 40°40' W 074°01'2 3.3
2018-Feb-14 17:00N 40°39' W 074°03'2 4.1
2018-Feb-14 16:30N 40°41' W 074°03'0 0.0
2018-Feb-14 16:00N 40°41' W 074°03'0 0.0
2018-Feb-14 15:30N 40°41' W 074°03'0 0.1
2018-Feb-14 15:00N 40°41' W 074°03'0 0.3
2018-Feb-14 14:30N 40°41' W 074°03'3 5.9
2018-Feb-14 14:00N 40°39' W 074°06'4 8.2
2018-Feb-14 13:30N 40°39' W 074°11'1 2.9
2018-Feb-14 13:00N 40°38' W 074°12'0 0.4
2018-Feb-14 12:30N 40°38' W 074°12'0 0.0
2018-Feb-14 12:00N 40°38' W 074°12'0 0.0
2018-Feb-14 11:30N 40°38' W 074°12'0 0.0
2018-Feb-14 11:00N 40°38' W 074°12'0 0.0
2018-Feb-14 10:30N 40°38' W 074°12'0 0.0
2018-Feb-14 10:00N 40°38' W 074°12'1 2.7
2018-Feb-14 09:30N 40°39' W 074°11'4 7.7
2018-Feb-14 08:59N 40°39' W 074°06'1 1.5
2018-Feb-14 08:30N 40°39' W 074°05'0 0.2
2018-Feb-14 08:00N 40°39' W 074°05'4 8.2
2018-Feb-14 07:29N 40°39' W 074°10'2 3.2
2018-Feb-14 06:58N 40°38' W 074°12'0 0.0
2018-Feb-14 06:30N 40°38' W 074°12'0 0.0
2018-Feb-14 05:59N 40°38' W 074°12'0 0.0
2018-Feb-14 05:29N 40°38' W 074°12'0 0.0
2018-Feb-14 05:00N 40°38' W 074°12'0 0.0
2018-Feb-14 04:30N 40°38' W 074°12'1 2.2
2018-Feb-14 04:00N 40°39' W 074°11'1 1.9
2018-Feb-14 03:30N 40°39' W 074°10'0 0.0
2018-Feb-14 03:00N 40°39' W 074°10'0 0.0
2018-Feb-14 02:30N 40°39' W 074°10'0 0.0
2018-Feb-14 02:00N 40°39' W 074°10'2 3.9
2018-Feb-14 01:30N 40°38' W 074°12'0 0.0
2018-Feb-14 00:59N 40°38' W 074°12'1 1.2
2018-Feb-14 00:30N 40°38' W 074°12'0 0.4
2018-Feb-13 23:58N 40°38' W 074°12'0 0.0
2018-Feb-13 23:30N 40°38' W 074°12'0 0.0
2018-Feb-13 23:00N 40°38' W 074°12'0 0.1
2018-Feb-13 22:30N 40°38' W 074°12'1 1.5
2018-Feb-13 22:00N 40°38' W 074°12'0 0.3
2018-Feb-13 21:30N 40°38' W 074°12'3 6.4
2018-Feb-13 20:59N 40°40' W 074°09'1 2.5
2018-Feb-13 20:30N 40°41' W 074°09'0 0.0
2018-Feb-13 19:59N 40°41' W 074°09'0 0.0
2018-Feb-13 19:30N 40°41' W 074°09'2 3.4
2018-Feb-13 19:00N 40°39' W 074°09'4 8.8
2018-Feb-13 18:30N 40°39' W 074°03'3 4.9
2018-Feb-13 17:59N 40°40' W 074°00'0 0.0
2018-Feb-13 17:30N 40°40' W 074°00'0 0.0
2018-Feb-13 17:00N 40°40' W 074°00'0 0.0
2018-Feb-13 16:30N 40°40' W 074°00'0 0.0
2018-Feb-13 16:00N 40°40' W 074°00'0 0.1
2018-Feb-13 15:30N 40°40' W 074°00'0 0.0
2018-Feb-13 15:00N 40°40' W 074°00'0 0.0
2018-Feb-13 14:30N 40°40' W 074°00'1 2.0
2018-Feb-13 14:00N 40°40' W 074°01'3 5.7
2018-Feb-13 13:29N 40°39' W 074°05'3 5.3
2018-Feb-13 13:00N 40°39' W 074°02'2 2.9
2018-Feb-13 12:29N 40°40' W 074°00'0 0.0
2018-Feb-13 12:00N 40°40' W 074°00'0 0.0
2018-Feb-13 11:30N 40°40' W 074°00'0 0.0
2018-Feb-13 11:00N 40°40' W 074°00'0 0.0
2018-Feb-13 10:30N 40°40' W 074°00'0 0.0
2018-Feb-13 10:00N 40°40' W 074°00'0 0.0
2018-Feb-13 09:30N 40°40' W 074°00'0 0.0
2018-Feb-13 09:00N 40°40' W 074°00'0 0.0
2018-Feb-13 08:30N 40°40' W 074°00'  
Track history (hours):
 
Tides and Currents Weather Stations Pressure Air Temp Water Temp Dewpoint Dewpoint Depression Visibility Wind Speed Wind Dir Waves Ship Positions

Andrea

Owner: Enterprise Marine Services, LLC, San Antonio, TX. More information available from US FCC via Universal Licensing System and Coast Guard Vessel Documentation Center.

Last reported at 2018-Feb-23 08:17 UTC. Time now 2018-Feb-23 12:57 UTC.
Position N 40°48' W 073°54'.

; draft 4 m.

Type: Towing. MMSI: 367003310.

Date/timePositionNaut miles runAvg speedWind from/ knotsBaromVisibWave heightAir tempDewpointWater temp
2018-Feb-23 08:17N 40°48' W 073°54'1 4.8
2018-Feb-23 08:00N 40°47' W 073°55'3 6.1
2018-Feb-23 07:30N 40°45' W 073°58'3 6.7
2018-Feb-23 07:00N 40°42' W 074°00'2 4.0
2018-Feb-23 06:30N 40°41' W 074°03'0 0.1
2018-Feb-23 06:00N 40°41' W 074°03'0 0.0
2018-Feb-23 05:30N 40°41' W 074°03'0 0.1
2018-Feb-23 05:00N 40°41' W 074°03'0 0.1
2018-Feb-23 04:30N 40°41' W 074°03'0 0.0
2018-Feb-23 04:00N 40°41' W 074°03'1 1.1
2018-Feb-23 03:30N 40°40' W 074°03'3 6.3
2018-Feb-23 03:00N 40°39' W 074°07'3 6.3
2018-Feb-23 02:30N 40°39' W 074°11'1 1.5
2018-Feb-23 02:00N 40°38' W 074°12'0 0.3
2018-Feb-23 01:30N 40°38' W 074°12'0 0.0
2018-Feb-23 01:00N 40°38' W 074°12'0 0.0
2018-Feb-23 00:30N 40°38' W 074°12'0 0.0
2018-Feb-23 00:00N 40°38' W 074°12'0 0.0
2018-Feb-22 23:30N 40°38' W 074°12'0 0.0
2018-Feb-22 23:00N 40°38' W 074°12'0 0.0
2018-Feb-22 22:30N 40°38' W 074°12'3 6.6
2018-Feb-22 22:00N 40°39' W 074°07'0 0.1
2018-Feb-22 21:29N 40°39' W 074°07'0 0.0
2018-Feb-22 21:00N 40°39' W 074°07'0 0.0
2018-Feb-22 20:30N 40°39' W 074°07'0 0.0
2018-Feb-22 19:59N 40°39' W 074°07'0 0.0
2018-Feb-22 19:29N 40°39' W 074°07'3 6.7
2018-Feb-22 19:00N 40°39' W 074°11'0 0.3
2018-Feb-22 18:30N 40°38' W 074°12'1 1.1
2018-Feb-22 17:43N 40°38' W 074°12'0 0.0
2018-Feb-22 17:16N 40°38' W 074°12'0 0.0
2018-Feb-22 17:00N 40°38' W 074°12'0 0.0
2018-Feb-22 16:30N 40°38' W 074°12'0 0.0
2018-Feb-22 15:57N 40°38' W 074°12'0 0.0
2018-Feb-22 15:27N 40°38' W 074°12'1 1.4
2018-Feb-22 15:00N 40°37' W 074°12'1 1.7
2018-Feb-22 14:23N 40°36' W 074°12'0 0.1
2018-Feb-22 13:51N 40°36' W 074°12'2 5.4
2018-Feb-22 13:29N 40°38' W 074°12'4 7.3
2018-Feb-22 13:00N 40°39' W 074°07'0 0.6
2018-Feb-22 12:29N 40°39' W 074°07'0 0.1
2018-Feb-22 11:59N 40°39' W 074°07'1 2.3
2018-Feb-22 11:29N 40°39' W 074°05'2 4.6
2018-Feb-22 11:00N 40°40' W 074°03'1 1.3
2018-Feb-22 10:30N 40°41' W 074°03'0 0.0
2018-Feb-22 10:00N 40°41' W 074°03'0 0.0
2018-Feb-22 09:30N 40°41' W 074°03'0 0.0
2018-Feb-22 09:00N 40°41' W 074°03'0 0.0
2018-Feb-22 08:30N 40°41' W 074°03'0 0.0
2018-Feb-22 08:00N 40°41' W 074°03'0 0.0
2018-Feb-22 07:30N 40°41' W 074°03'0 0.0
2018-Feb-22 06:59N 40°41' W 074°03'0 0.0
2018-Feb-22 06:30N 40°41' W 074°03'0 0.1
2018-Feb-22 06:00N 40°41' W 074°03'0 0.0
2018-Feb-22 05:30N 40°41' W 074°03'0 0.1
2018-Feb-22 05:00N 40°41' W 074°03'2 4.6
2018-Feb-22 04:30N 40°39' W 074°05'2 4.5
2018-Feb-22 04:00N 40°41' W 074°03'0 0.0
2018-Feb-22 03:30N 40°41' W 074°03'0 0.1
2018-Feb-22 03:00N 40°41' W 074°03'1 2.5
2018-Feb-22 02:30N 40°40' W 074°04'3 6.7
2018-Feb-22 02:00N 40°39' W 074°08'3 5.6
2018-Feb-22 01:28N 40°38' W 074°12'1 1.4
2018-Feb-22 00:56N 40°38' W 074°12'0 0.1
2018-Feb-22 00:30N 40°38' W 074°12'0 0.0
2018-Feb-22 00:00N 40°38' W 074°12'0 0.0
2018-Feb-21 23:30N 40°38' W 074°12'0 0.0
2018-Feb-21 23:00N 40°38' W 074°12'0 0.0
2018-Feb-21 22:30N 40°38' W 074°12'0 0.0
2018-Feb-21 22:00N 40°38' W 074°12'0 0.0
2018-Feb-21 21:30N 40°38' W 074°12'0 0.0
2018-Feb-21 21:00N 40°38' W 074°12'0 0.0
2018-Feb-21 20:29N 40°38' W 074°12'0 0.0
2018-Feb-21 20:00N 40°38' W 074°12'0 0.0
2018-Feb-21 19:30N 40°38' W 074°12'0 0.0
2018-Feb-21 18:59N 40°38' W 074°12'0 0.0
2018-Feb-21 18:30N 40°38' W 074°12'0 0.0
2018-Feb-21 18:00N 40°38' W 074°12'0 0.0
2018-Feb-21 17:30N 40°38' W 074°12'0 0.0
2018-Feb-21 17:00N 40°38' W 074°12'0 0.0
2018-Feb-21 16:30N 40°38' W 074°12'0 0.0
2018-Feb-21 16:00N 40°38' W 074°12'0 0.0
2018-Feb-21 15:30N 40°38' W 074°12'0 0.0
2018-Feb-21 15:00N 40°38' W 074°12'0 0.0
2018-Feb-21 14:30N 40°38' W 074°12'0 0.0
2018-Feb-21 14:00N 40°38' W 074°12'0 0.0
2018-Feb-21 13:29N 40°38' W 074°12'0 0.0
2018-Feb-21 12:59N 40°38' W 074°12'0 0.0
2018-Feb-21 12:30N 40°38' W 074°12'1 2.8
2018-Feb-21 12:00N 40°39' W 074°11'3 6.6
2018-Feb-21 11:30N 40°39' W 074°07'1 2.8
2018-Feb-21 11:00N 40°39' W 074°05'0 0.0
2018-Feb-21 10:30N 40°39' W 074°05'0 0.1
2018-Feb-21 10:00N 40°39' W 074°05'0 0.0
2018-Feb-21 09:30N 40°39' W 074°05'0 0.0
2018-Feb-21 09:00N 40°39' W 074°05'0 0.0
2018-Feb-21 08:30N 40°39' W 074°05'0 0.0
2018-Feb-21 08:00N 40°39' W 074°05'0 0.0
2018-Feb-21 07:30N 40°39' W 074°05'0 0.0
2018-Feb-21 07:00N 40°39' W 074°05'0 0.0
2018-Feb-21 06:30N 40°39' W 074°05'0 0.0
2018-Feb-21 05:59N 40°39' W 074°05'0 0.0
2018-Feb-21 05:30N 40°39' W 074°05'0 0.0
2018-Feb-21 05:00N 40°39' W 074°05'0 0.0
2018-Feb-21 04:30N 40°39' W 074°05'0 0.0
2018-Feb-21 04:00N 40°39' W 074°05'0 0.0
2018-Feb-21 03:30N 40°39' W 074°05'0 0.0
2018-Feb-21 03:00N 40°39' W 074°05'0 0.0
2018-Feb-21 02:30N 40°39' W 074°05'0 0.0
2018-Feb-21 01:58N 40°39' W 074°05'0 0.0
2018-Feb-21 01:30N 40°39' W 074°05'0 0.0
2018-Feb-21 01:00N 40°39' W 074°05'0 0.0
2018-Feb-21 00:30N 40°39' W 074°05'0 0.0
2018-Feb-20 23:59N 40°39' W 074°05'0 0.0
2018-Feb-20 23:30N 40°39' W 074°05'0 0.0
2018-Feb-20 22:59N 40°39' W 074°05'0 0.0
2018-Feb-20 22:30N 40°39' W 074°05'0 0.0
2018-Feb-20 22:00N 40°39' W 074°05'0 0.6
2018-Feb-20 21:31N 40°39' W 074°05'0 0.6
2018-Feb-20 21:00N 40°39' W 074°05'0 0.0
2018-Feb-20 20:30N 40°39' W 074°05'0 0.0
2018-Feb-20 20:00N 40°39' W 074°05'0 0.0
2018-Feb-20 19:29N 40°39' W 074°05'0 0.0
2018-Feb-20 19:00N 40°39' W 074°05'0 0.0
2018-Feb-20 18:30N 40°39' W 074°05'0 0.0
2018-Feb-20 18:00N 40°39' W 074°05'0 0.0
2018-Feb-20 17:29N 40°39' W 074°05'0 0.0
2018-Feb-20 17:00N 40°39' W 074°05'0 0.0
2018-Feb-20 16:30N 40°39' W 074°05'0 0.0
2018-Feb-20 16:00N 40°39' W 074°05'0 0.0
2018-Feb-20 15:30N 40°39' W 074°05'0 0.0
2018-Feb-20 15:00N 40°39' W 074°05'0 0.0
2018-Feb-20 14:30N 40°39' W 074°05'0 0.0
2018-Feb-20 14:00N 40°39' W 074°05'0 0.0
2018-Feb-20 13:30N 40°39' W 074°05'0 0.0
2018-Feb-20 13:00N 40°39' W 074°05'0 0.0
2018-Feb-20 12:30N 40°39' W 074°05'0 0.0
2018-Feb-20 12:00N 40°39' W 074°05'0 0.0
2018-Feb-20 11:30N 40°39' W 074°05'0 0.0
2018-Feb-20 11:00N 40°39' W 074°05'0 0.0
2018-Feb-20 10:30N 40°39' W 074°05'0 0.4
2018-Feb-20 10:00N 40°39' W 074°05'4 7.6
2018-Feb-20 09:30N 40°39' W 074°10'3 5.4
2018-Feb-20 08:57N 40°36' W 074°12'0 0.0
2018-Feb-20 08:30N 40°36' W 074°12'0 0.0
2018-Feb-20 07:59N 40°36' W 074°12'0 0.0
2018-Feb-20 07:29N 40°36' W 074°12'0 0.0
2018-Feb-20 07:00N 40°36' W 074°12'0 0.0
2018-Feb-20 06:30N 40°36' W 074°12'0 0.0
2018-Feb-20 06:00N 40°36' W 074°12'0 0.0
2018-Feb-20 05:29N 40°36' W 074°12'0 0.0
2018-Feb-20 05:00N 40°36' W 074°12'0 0.0
2018-Feb-20 04:29N 40°36' W 074°12'0 0.0
2018-Feb-20 03:57N 40°36' W 074°12'0 0.0
2018-Feb-20 03:30N 40°36' W 074°12'0 0.0
2018-Feb-20 02:59N 40°36' W 074°12'0 0.0
2018-Feb-20 02:27N 40°36' W 074°12'0 0.0
2018-Feb-20 01:59N 40°36' W 074°12'0 0.0
2018-Feb-20 01:24N 40°36' W 074°12'0 0.0
2018-Feb-20 01:00N 40°36' W 074°12'0 0.0
2018-Feb-19 23:31N 40°36' W 074°12'0 0.0
2018-Feb-19 23:22N 40°36' W 074°12'0 0.0
2018-Feb-19 22:55N 40°36' W 074°12'0 0.0
2018-Feb-19 22:25N 40°36' W 074°12'0 0.0
2018-Feb-19 21:58N 40°36' W 074°12'0 0.0
2018-Feb-19 21:30N 40°36' W 074°12'0 0.0
2018-Feb-19 21:00N 40°36' W 074°12'0 0.0
2018-Feb-19 20:30N 40°36' W 074°12'1 1.1
2018-Feb-19 20:00N 40°36' W 074°12'2 2.6
2018-Feb-19 19:25N 40°34' W 074°13'2 0.9
2018-Feb-19 16:43N 40°37' W 074°12'1 4.1
2018-Feb-19 16:28N 40°38' W 074°12'3 6.7
2018-Feb-19 16:00N 40°39' W 074°08'4 8.0
2018-Feb-19 15:30N 40°39' W 074°03'2 4.8
2018-Feb-19 15:00N 40°40' W 074°00'0 0.0
2018-Feb-19 14:30N 40°40' W 074°00'0 0.0
2018-Feb-19 13:59N 40°40' W 074°00'0 0.0
2018-Feb-19 13:30N 40°40' W 074°00'0 0.0
2018-Feb-19 13:00N 40°40' W 074°00'0 0.0
2018-Feb-19 12:30N 40°40' W 074°00'0 0.0
2018-Feb-19 12:00N 40°40' W 074°00'0 0.0
2018-Feb-19 11:30N 40°40' W 074°00'0 0.0
2018-Feb-19 11:00N 40°40' W 074°00'0 0.0
2018-Feb-19 10:30N 40°40' W 074°00'0 0.0
2018-Feb-19 10:00N 40°40' W 074°00'0 0.0
2018-Feb-19 09:30N 40°40' W 074°00'0 0.0
2018-Feb-19 09:00N 40°40' W 074°00'0 0.0
2018-Feb-19 08:30N 40°40' W 074°00'0 0.0
2018-Feb-19 08:00N 40°40' W 074°00'0 0.0
2018-Feb-19 07:30N 40°40' W 074°00'0 0.0
2018-Feb-19 07:00N 40°40' W 074°00'0 0.0
2018-Feb-19 06:30N 40°40' W 074°00'0 0.0
2018-Feb-19 06:00N 40°40' W 074°00'0 0.0
2018-Feb-19 05:30N 40°40' W 074°00'0 0.0
2018-Feb-19 05:00N 40°40' W 074°00'0 0.0
2018-Feb-19 04:30N 40°40' W 074°00'0 0.0
2018-Feb-19 04:00N 40°40' W 074°00'0 0.0
2018-Feb-19 03:30N 40°40' W 074°00'0 0.0
2018-Feb-19 03:00N 40°40' W 074°00'0 0.0
2018-Feb-19 02:30N 40°40' W 074°00'0 0.0
2018-Feb-19 01:59N 40°40' W 074°00'0 0.0
2018-Feb-19 01:28N 40°40' W 074°00'0 0.0
2018-Feb-19 01:00N 40°40' W 074°00'0 0.0
2018-Feb-19 00:30N 40°40' W 074°00'0 0.0
2018-Feb-18 23:56N 40°40' W 074°00'0 0.1
2018-Feb-18 23:30N 40°40' W 074°00'0 0.0
2018-Feb-18 23:00N 40°40' W 074°00'0 0.0
2018-Feb-18 22:30N 40°40' W 074°00'0 0.0
2018-Feb-18 22:00N 40°40' W 074°00'0 0.0
2018-Feb-18 21:30N 40°40' W 074°00'0 0.0
2018-Feb-18 21:00N 40°40' W 074°00'0 0.0
2018-Feb-18 20:30N 40°40' W 074°00'0 0.0
2018-Feb-18 19:56N 40°40' W 074°00'0 0.0
2018-Feb-18 19:29N 40°40' W 074°00'0 0.0
2018-Feb-18 19:00N 40°40' W 074°00'0 0.0
2018-Feb-18 18:30N 40°40' W 074°00'0 0.0
2018-Feb-18 18:00N 40°40' W 074°00'0 0.0
2018-Feb-18 17:29N 40°40' W 074°00'0 0.0
2018-Feb-18 16:59N 40°40' W 074°00'0 0.0
2018-Feb-18 16:30N 40°40' W 074°00'0 0.0
2018-Feb-18 16:00N 40°40' W 074°00'0 0.0
2018-Feb-18 15:28N 40°40' W 074°00'0 0.0
2018-Feb-18 14:59N 40°40' W 074°00'0 0.0
2018-Feb-18 14:30N 40°40' W 074°00'0 0.0
2018-Feb-18 13:59N 40°40' W 074°00'0 0.0
2018-Feb-18 13:30N 40°40' W 074°00'0 0.0
2018-Feb-18 13:00N 40°40' W 074°00'0 0.0
2018-Feb-18 12:30N 40°40' W 074°00'1 1.4
2018-Feb-18 12:00N 40°40' W 074°01'2 3.3
2018-Feb-18 11:30N 40°41' W 074°03'0 0.0
2018-Feb-18 11:00N 40°41' W 074°03'0 0.0
2018-Feb-18 10:30N 40°41' W 074°03'0 0.0
2018-Feb-18 09:59N 40°41' W 074°03'0 0.0
2018-Feb-18 09:30N 40°41' W 074°03'0 0.0
2018-Feb-18 09:00N 40°41' W 074°03'1 2.6
2018-Feb-18 08:30N 40°40' W 074°04'4 8.4
2018-Feb-18 08:00N 40°39' W 074°09'2 4.6
2018-Feb-18 07:30N 40°41' W 074°09'0 0.0
2018-Feb-18 07:00N 40°41' W 074°09'0 0.0
2018-Feb-18 06:30N 40°41' W 074°09'0 0.0
2018-Feb-18 06:00N 40°41' W 074°09'0 0.0
2018-Feb-18 05:30N 40°41' W 074°09'0 0.0
2018-Feb-18 05:00N 40°41' W 074°09'0 0.0
2018-Feb-18 04:25N 40°41' W 074°09'0 0.0
2018-Feb-18 04:00N 40°41' W 074°09'0 0.0
2018-Feb-18 03:30N 40°41' W 074°09'0 0.0
2018-Feb-18 03:00N 40°41' W 074°09'0 0.0
2018-Feb-18 02:30N 40°41' W 074°09'0 0.0
2018-Feb-18 02:00N 40°41' W 074°09'0 0.0
2018-Feb-18 01:29N 40°41' W 074°09'0 0.0
2018-Feb-18 00:59N 40°41' W 074°09'0 0.0
2018-Feb-18 00:30N 40°41' W 074°09'0 0.1
2018-Feb-18 00:00N 40°41' W 074°09'0 0.1
2018-Feb-17 23:30N 40°41' W 074°09'0 0.0
2018-Feb-17 23:00N 40°41' W 074°09'0 0.0
2018-Feb-17 22:30N 40°41' W 074°09'0 0.0
2018-Feb-17 22:00N 40°41' W 074°09'0 0.9
2018-Feb-17 21:30N 40°41' W 074°08'2 4.2
2018-Feb-17 20:59N 40°39' W 074°07'0 0.3
2018-Feb-17 20:27N 40°39' W 074°06'0 0.1
2018-Feb-17 20:00N 40°39' W 074°06'4 7.8
2018-Feb-17 19:30N 40°38' W 074°12'0 0.2
2018-Feb-17 19:00N 40°38' W 074°12'3 6.0
2018-Feb-17 18:30N 40°39' W 074°08'4 7.9
2018-Feb-17 18:00N 40°40' W 074°03'1 1.7
2018-Feb-17 17:30N 40°41' W 074°03'0 0.0
2018-Feb-17 17:00N 40°41' W 074°03'0 0.1
2018-Feb-17 16:30N 40°41' W 074°03'0 0.0
2018-Feb-17 16:00N 40°41' W 074°03'0 0.1
2018-Feb-17 15:30N 40°41' W 074°03'0 0.1
2018-Feb-17 15:00N 40°41' W 074°03'0 0.0
2018-Feb-17 14:30N 40°41' W 074°03'0 0.0
2018-Feb-17 14:00N 40°41' W 074°03'0 0.1
2018-Feb-17 13:30N 40°41' W 074°03'0 0.1
2018-Feb-17 13:00N 40°41' W 074°03'0 0.0
2018-Feb-17 12:30N 40°41' W 074°03'0 0.1
2018-Feb-17 12:00N 40°41' W 074°03'0 0.0
2018-Feb-17 11:30N 40°41' W 074°03'0 0.0
2018-Feb-17 11:00N 40°41' W 074°03'1 1.3
2018-Feb-17 10:30N 40°40' W 074°03'1 1.8
2018-Feb-17 10:00N 40°40' W 074°04'0 0.0
2018-Feb-17 09:30N 40°40' W 074°04'0 0.1
2018-Feb-17 09:00N 40°40' W 074°04'2 4.1
2018-Feb-17 08:30N 40°39' W 074°06'1 1.1
2018-Feb-17 08:00N 40°39' W 074°06'1 2.8
2018-Feb-17 07:30N 40°39' W 074°04'3 6.3
2018-Feb-17 07:00N 40°40' W 074°00'0 0.0
2018-Feb-17 06:30N 40°40' W 074°00'0 0.0
2018-Feb-17 06:00N 40°40' W 074°00'0 0.0
2018-Feb-17 05:30N 40°40' W 074°00'0 0.0
2018-Feb-17 05:00N 40°40' W 074°00'0 0.0
2018-Feb-17 04:30N 40°40' W 074°00'0 0.0
2018-Feb-17 04:00N 40°40' W 074°00'2 3.9
2018-Feb-17 03:30N 40°41' W 074°02'3 6.2
2018-Feb-17 03:00N 40°42' W 073°59'4 7.7
2018-Feb-17 02:30N 40°46' W 073°57'3 6.7
2018-Feb-17 02:00N 40°48' W 073°54'3 5.9
2018-Feb-17 01:30N 40°48' W 073°50'3 4.3
2018-Feb-17 00:49N 40°50' W 073°47'2 0.1
2018-Feb-15 08:50N 40°48' W 073°49'3 9.6
2018-Feb-15 08:30N 40°48' W 073°53'4 7.4
2018-Feb-15 08:00N 40°46' W 073°57'4 7.3
2018-Feb-15 07:30N 40°42' W 073°59'3 5.9
2018-Feb-15 07:00N 40°40' W 074°01'1 1.1
2018-Feb-15 06:30N 40°40' W 074°00'0 0.0
2018-Feb-15 06:00N 40°40' W 074°00'0 0.0
2018-Feb-15 05:30N 40°40' W 074°00'0 0.0
2018-Feb-15 05:00N 40°40' W 074°00'0 0.0
2018-Feb-15 04:30N 40°40' W 074°00'0 0.0
2018-Feb-15 04:00N 40°40' W 074°00'0 0.0
2018-Feb-15 03:30N 40°40' W 074°00'0 0.0
2018-Feb-15 03:00N 40°40' W 074°00'0 0.0
2018-Feb-15 02:30N 40°40' W 074°00'0 0.0
2018-Feb-15 02:00N 40°40' W 074°00'0 0.0
2018-Feb-15 01:30N 40°40' W 074°00'0 0.0
2018-Feb-15 01:00N 40°40' W 074°00'0 0.0
2018-Feb-15 00:30N 40°40' W 074°00'0 0.0
2018-Feb-15 00:00N 40°40' W 074°00'0 0.0
2018-Feb-14 23:30N 40°40' W 074°00'0 0.0
2018-Feb-14 23:00N 40°40' W 074°00'0 0.0
2018-Feb-14 22:30N 40°40' W 074°00'0 0.0
2018-Feb-14 22:00N 40°40' W 074°00'0 0.1
2018-Feb-14 21:30N 40°40' W 074°00'0 0.0
2018-Feb-14 21:00N 40°40' W 074°00'0 0.0
2018-Feb-14 20:30N 40°40' W 074°00'0 0.0
2018-Feb-14 20:00N 40°40' W 074°00'0 0.0
2018-Feb-14 19:30N 40°40' W 074°00'0 0.0
2018-Feb-14 19:00N 40°40' W 074°00'0 0.0
2018-Feb-14 18:30N 40°40' W 074°00'0 0.0
2018-Feb-14 18:00N 40°40' W 074°00'1 1.7
2018-Feb-14 17:30N 40°40' W 074°01'2 3.3
2018-Feb-14 17:00N 40°39' W 074°03'2 4.1
2018-Feb-14 16:30N 40°41' W 074°03'0 0.0
2018-Feb-14 16:00N 40°41' W 074°03'0 0.0
2018-Feb-14 15:30N 40°41' W 074°03'0 0.1
2018-Feb-14 15:00N 40°41' W 074°03'0 0.3
2018-Feb-14 14:30N 40°41' W 074°03'3 5.9
2018-Feb-14 14:00N 40°39' W 074°06'4 8.2
2018-Feb-14 13:30N 40°39' W 074°11'1 2.9
2018-Feb-14 13:00N 40°38' W 074°12'0 0.4
2018-Feb-14 12:30N 40°38' W 074°12'0 0.0
2018-Feb-14 12:00N 40°38' W 074°12'0 0.0
2018-Feb-14 11:30N 40°38' W 074°12'0 0.0
2018-Feb-14 11:00N 40°38' W 074°12'0 0.0
2018-Feb-14 10:30N 40°38' W 074°12'0 0.0
2018-Feb-14 10:00N 40°38' W 074°12'1 2.7
2018-Feb-14 09:30N 40°39' W 074°11'4 7.7
2018-Feb-14 08:59N 40°39' W 074°06'1 1.5
2018-Feb-14 08:30N 40°39' W 074°05'0 0.2
2018-Feb-14 08:00N 40°39' W 074°05'4 8.2
2018-Feb-14 07:29N 40°39' W 074°10'2 3.2
2018-Feb-14 06:58N 40°38' W 074°12'0 0.0
2018-Feb-14 06:30N 40°38' W 074°12'0 0.0
2018-Feb-14 05:59N 40°38' W 074°12'0 0.0
2018-Feb-14 05:29N 40°38' W 074°12'0 0.0
2018-Feb-14 05:00N 40°38' W 074°12'0 0.0
2018-Feb-14 04:30N 40°38' W 074°12'1 2.2
2018-Feb-14 04:00N 40°39' W 074°11'1 1.9
2018-Feb-14 03:30N 40°39' W 074°10'0 0.0
2018-Feb-14 03:00N 40°39' W 074°10'0 0.0
2018-Feb-14 02:30N 40°39' W 074°10'0 0.0
2018-Feb-14 02:00N 40°39' W 074°10'2 3.9
2018-Feb-14 01:30N 40°38' W 074°12'0 0.0
2018-Feb-14 00:59N 40°38' W 074°12'1 1.2
2018-Feb-14 00:30N 40°38' W 074°12'0 0.4
2018-Feb-13 23:58N 40°38' W 074°12'0 0.0
2018-Feb-13 23:30N 40°38' W 074°12'0 0.0
2018-Feb-13 23:00N 40°38' W 074°12'0 0.1
2018-Feb-13 22:30N 40°38' W 074°12'1 1.5
2018-Feb-13 22:00N 40°38' W 074°12'0 0.3
2018-Feb-13 21:30N 40°38' W 074°12'3 6.4
2018-Feb-13 20:59N 40°40' W 074°09'1 2.5
2018-Feb-13 20:30N 40°41' W 074°09'0 0.0
2018-Feb-13 19:59N 40°41' W 074°09'0 0.0
2018-Feb-13 19:30N 40°41' W 074°09'2 3.4
2018-Feb-13 19:00N 40°39' W 074°09'4 8.8
2018-Feb-13 18:30N 40°39' W 074°03'3 4.9
2018-Feb-13 17:59N 40°40' W 074°00'0 0.0
2018-Feb-13 17:30N 40°40' W 074°00'0 0.0
2018-Feb-13 17:00N 40°40' W 074°00'0 0.0
2018-Feb-13 16:30N 40°40' W 074°00'0 0.0
2018-Feb-13 16:00N 40°40' W 074°00'0 0.1
2018-Feb-13 15:30N 40°40' W 074°00'0 0.0
2018-Feb-13 15:00N 40°40' W 074°00'0 0.0
2018-Feb-13 14:30N 40°40' W 074°00'1 2.0
2018-Feb-13 14:00N 40°40' W 074°01'3 5.7
2018-Feb-13 13:29N 40°39' W 074°05'3 5.3
2018-Feb-13 13:00N 40°39' W 074°02'2 2.9
2018-Feb-13 12:29N 40°40' W 074°00'0 0.0
2018-Feb-13 12:00N 40°40' W 074°00'0 0.0
2018-Feb-13 11:30N 40°40' W 074°00'0 0.0
2018-Feb-13 11:00N 40°40' W 074°00'0 0.0
2018-Feb-13 10:30N 40°40' W 074°00'0 0.0
2018-Feb-13 10:00N 40°40' W 074°00'0 0.0
2018-Feb-13 09:30N 40°40' W 074°00'0 0.0
2018-Feb-13 09:00N 40°40' W 074°00'0 0.0
2018-Feb-13 08:30N 40°40' W 074°00'  

Dump ship's entire track history